createdAt,value
2019-02-14T00:00:59.498Z,8.22
2019-02-14T00:03:00.859Z,8.26
2019-02-14T00:05:03.556Z,8.29
2019-02-14T00:07:05.126Z,8.26
2019-02-14T00:09:06.489Z,8.27
2019-02-14T00:11:07.834Z,8.17
2019-02-14T00:13:09.227Z,8.19
2019-02-14T00:15:12.597Z,8.21
2019-02-14T00:17:14.058Z,8.18
2019-02-14T00:19:15.464Z,8.15
2019-02-14T00:21:16.825Z,8.17
2019-02-14T00:23:18.178Z,8.16
2019-02-14T00:25:19.585Z,8.18
2019-02-14T00:27:20.931Z,8.13
2019-02-14T00:29:22.294Z,8.20
2019-02-14T00:31:23.694Z,8.23
2019-02-14T00:33:25.041Z,8.18
2019-02-14T00:35:26.445Z,8.18
2019-02-14T00:37:27.862Z,8.16
2019-02-14T00:39:29.331Z,8.19
2019-02-14T00:41:30.758Z,8.20
2019-02-14T00:43:32.122Z,8.18
2019-02-14T00:45:34.681Z,8.19
2019-02-14T00:47:36.295Z,8.25
2019-02-14T00:49:37.666Z,8.21
2019-02-14T00:51:39.080Z,8.26
2019-02-14T00:53:40.435Z,8.25
2019-02-14T00:55:41.805Z,8.26
2019-02-14T00:57:43.272Z,8.35
2019-02-14T00:59:44.621Z,8.33
2019-02-14T01:01:46.056Z,8.28
2019-02-14T01:03:47.509Z,8.28
2019-02-14T01:05:48.886Z,8.26
2019-02-14T01:07:50.246Z,8.27
2019-02-14T01:09:51.684Z,8.26
2019-02-14T01:11:53.036Z,8.30
2019-02-14T01:13:54.401Z,8.26
2019-02-14T01:15:55.796Z,8.30
2019-02-14T01:17:57.164Z,8.28
2019-02-14T01:19:58.529Z,8.30
2019-02-14T01:21:59.993Z,8.24
2019-02-14T01:24:01.360Z,8.19
2019-02-14T01:26:03.032Z,8.21
2019-02-14T01:28:04.541Z,8.21
2019-02-14T01:30:09.420Z,8.19
2019-02-14T01:32:10.930Z,8.19
2019-02-14T01:34:12.384Z,8.21
2019-02-14T01:36:13.941Z,8.19
2019-02-14T01:38:15.365Z,8.20
2019-02-14T01:40:16.729Z,8.22
2019-02-14T01:42:18.088Z,8.25
2019-02-14T01:44:19.497Z,8.27
2019-02-14T01:46:20.863Z,8.29
2019-02-14T01:48:22.229Z,8.31
2019-02-14T01:50:23.614Z,8.31
2019-02-14T01:52:24.986Z,8.27
2019-02-14T01:54:26.350Z,8.35
2019-02-14T01:56:28.242Z,8.34
2019-02-14T01:58:29.768Z,8.24
2019-02-14T02:00:31.521Z,8.21
2019-02-14T02:02:32.975Z,8.22
2019-02-14T02:04:34.379Z,8.27
2019-02-14T02:06:35.740Z,8.25
2019-02-14T02:08:37.093Z,8.24
2019-02-14T02:10:38.473Z,8.23
2019-02-14T02:12:39.840Z,8.27
2019-02-14T02:14:41.237Z,8.25
2019-02-14T02:16:42.633Z,8.24
2019-02-14T02:18:44.001Z,8.21
2019-02-14T02:20:45.373Z,8.23
2019-02-14T02:22:46.788Z,8.29
2019-02-14T02:24:48.218Z,8.32
2019-02-14T02:26:49.563Z,8.30
2019-02-14T02:28:50.997Z,8.27
2019-02-14T02:30:52.424Z,8.24
2019-02-14T02:32:53.832Z,8.24
2019-02-14T02:34:55.206Z,8.17
2019-02-14T02:36:56.547Z,8.14
2019-02-14T02:38:57.953Z,8.16
2019-02-14T02:40:59.333Z,8.17
2019-02-14T02:43:00.687Z,8.23
2019-02-14T02:45:02.584Z,8.17
2019-02-14T02:47:03.978Z,8.17
2019-02-14T02:49:05.417Z,8.18
2019-02-14T02:51:06.822Z,8.14
2019-02-14T02:53:08.394Z,8.15
2019-02-14T02:55:09.977Z,8.18
2019-02-14T02:57:11.340Z,8.17
2019-02-14T02:59:14.205Z,8.18
2019-02-14T03:01:15.836Z,8.21
2019-02-14T03:03:17.188Z,8.17
2019-02-14T03:05:18.560Z,8.17
2019-02-14T03:07:19.964Z,8.24
2019-02-14T03:09:21.354Z,8.26
2019-02-14T03:11:22.722Z,8.26
2019-02-14T03:13:24.083Z,8.26
2019-02-14T03:15:25.513Z,8.31
2019-02-14T03:17:26.857Z,8.28
2019-02-14T03:19:28.264Z,8.27
2019-02-14T03:21:29.660Z,8.27
2019-02-14T03:23:31.115Z,8.28
2019-02-14T03:25:32.522Z,8.28
2019-02-14T03:27:33.900Z,8.32
2019-02-14T03:29:35.306Z,8.24
2019-02-14T03:31:36.655Z,8.26
2019-02-14T03:33:38.015Z,8.25
2019-02-14T03:35:39.426Z,8.22
2019-02-14T03:37:40.855Z,8.18
2019-02-14T03:39:42.209Z,8.16
2019-02-14T03:41:43.717Z,8.12
2019-02-14T03:43:45.121Z,8.14
2019-02-14T03:45:46.518Z,8.18
2019-02-14T03:47:47.862Z,8.19
2019-02-14T03:49:49.269Z,8.22
2019-02-14T03:51:50.628Z,8.18
2019-02-14T03:53:51.969Z,8.11
2019-02-14T03:55:53.551Z,8.20
2019-02-14T03:57:54.915Z,8.19
2019-02-14T03:59:56.297Z,8.18
2019-02-14T04:01:57.677Z,8.11
2019-02-14T04:03:59.040Z,8.11
2019-02-14T04:06:00.488Z,8.16
2019-02-14T04:08:01.860Z,8.09
2019-02-14T04:10:07.971Z,8.05
2019-02-14T04:12:09.375Z,7.95
2019-02-14T04:14:10.785Z,8.03
2019-02-14T04:16:12.408Z,8.02
2019-02-14T04:18:13.760Z,7.92
2019-02-14T04:20:15.119Z,7.92
2019-02-14T04:22:16.509Z,7.87
2019-02-14T04:24:17.922Z,7.89
2019-02-14T04:26:19.306Z,7.92
2019-02-14T04:28:20.659Z,7.89
2019-02-14T04:30:21.999Z,7.87
2019-02-14T04:32:23.386Z,7.82
2019-02-14T04:34:24.737Z,7.81
2019-02-14T04:36:26.074Z,7.78
2019-02-14T04:38:27.464Z,7.78
2019-02-14T04:40:33.582Z,7.80
2019-02-14T04:42:32.082Z,7.79
2019-02-14T04:44:33.484Z,7.79
2019-02-14T04:46:34.860Z,7.80
2019-02-14T04:48:36.210Z,7.84
2019-02-14T04:50:37.599Z,7.78
2019-02-14T04:52:38.947Z,7.83
2019-02-14T04:54:40.339Z,7.83
2019-02-14T04:56:41.750Z,7.83
2019-02-14T04:58:43.095Z,7.84
2019-02-14T05:00:44.448Z,7.81
2019-02-14T05:02:45.823Z,7.84
2019-02-14T05:04:47.434Z,7.89
2019-02-14T05:06:48.799Z,7.90
2019-02-14T05:08:50.138Z,7.85
2019-02-14T05:10:51.505Z,7.90
2019-02-14T05:12:52.854Z,7.89
2019-02-14T05:14:54.235Z,7.88
2019-02-14T05:16:55.619Z,7.88
2019-02-14T05:18:56.973Z,7.87
2019-02-14T05:20:58.360Z,7.87
2019-02-14T05:22:59.708Z,7.85
2019-02-14T05:25:01.083Z,7.88
2019-02-14T05:27:02.427Z,7.88
2019-02-14T05:29:04.206Z,7.81
2019-02-14T05:31:05.578Z,7.77
2019-02-14T05:33:06.935Z,7.79
2019-02-14T05:35:08.296Z,7.78
2019-02-14T05:37:09.678Z,7.75
2019-02-14T05:39:11.080Z,7.71
2019-02-14T05:41:12.466Z,7.70
2019-02-14T05:43:13.842Z,7.81
2019-02-14T05:45:15.814Z,7.78
2019-02-14T05:47:17.187Z,7.85
2019-02-14T05:49:18.571Z,7.78
2019-02-14T05:51:20.153Z,7.85
2019-02-14T05:53:21.511Z,7.88
2019-02-14T05:55:23.487Z,7.78
2019-02-14T05:57:27.297Z,7.94
2019-02-14T05:59:28.766Z,7.90
2019-02-14T06:01:30.116Z,7.86
2019-02-14T06:03:31.592Z,7.95
2019-02-14T06:05:32.992Z,8.01
2019-02-14T06:07:34.360Z,7.90
2019-02-14T06:09:35.769Z,7.92
2019-02-14T06:11:37.127Z,7.84
2019-02-14T06:13:38.555Z,7.76
2019-02-14T06:15:39.917Z,7.87
2019-02-14T06:17:41.295Z,7.89
2019-02-14T06:19:42.700Z,7.90
2019-02-14T06:21:44.088Z,7.82
2019-02-14T06:23:45.465Z,7.82
2019-02-14T06:25:46.817Z,7.78
2019-02-14T06:27:48.224Z,7.74
2019-02-14T06:29:49.593Z,7.73
2019-02-14T06:31:50.979Z,7.73
2019-02-14T06:33:52.354Z,7.71
2019-02-14T06:35:53.717Z,7.66
2019-02-14T06:37:55.109Z,7.66
2019-02-14T06:39:56.491Z,7.63
2019-02-14T06:41:57.856Z,7.64
2019-02-14T06:43:59.254Z,7.62
2019-02-14T06:46:00.619Z,7.61
2019-02-14T06:48:01.985Z,7.64
2019-02-14T06:50:05.492Z,7.65
2019-02-14T06:52:06.877Z,7.71
2019-02-14T06:54:08.233Z,7.68
2019-02-14T06:56:09.657Z,7.68
2019-02-14T06:58:12.802Z,7.70
2019-02-14T07:00:15.582Z,7.69
2019-02-14T07:02:17.220Z,7.72
2019-02-14T07:04:18.572Z,7.70
2019-02-14T07:06:19.949Z,7.80
2019-02-14T07:08:21.348Z,7.82
2019-02-14T07:10:22.711Z,7.79
2019-02-14T07:12:24.112Z,7.80
2019-02-14T07:14:25.496Z,7.80
2019-02-14T07:16:26.907Z,7.78
2019-02-14T07:18:28.378Z,7.82
2019-02-14T07:20:29.899Z,7.81
2019-02-14T07:22:31.351Z,7.80
2019-02-14T07:24:32.758Z,7.81
2019-02-14T07:26:34.149Z,7.82
2019-02-14T07:28:35.554Z,7.89
2019-02-14T07:30:36.945Z,7.90
2019-02-14T07:32:38.532Z,7.89
2019-02-14T07:34:39.891Z,7.85
2019-02-14T07:36:41.290Z,7.85
2019-02-14T07:38:42.692Z,7.82
2019-02-14T07:40:44.069Z,7.88
2019-02-14T07:42:45.504Z,7.88
2019-02-14T07:44:46.896Z,7.98
2019-02-14T07:46:48.258Z,8.05
2019-02-14T07:48:49.627Z,8.08
2019-02-14T07:50:51.010Z,8.10
2019-02-14T07:52:52.369Z,8.23
2019-02-14T07:54:53.811Z,8.19
2019-02-14T07:56:55.289Z,8.19
2019-02-14T07:58:56.682Z,8.21
2019-02-14T08:00:58.173Z,8.26
2019-02-14T08:02:59.578Z,8.26
2019-02-14T08:05:00.954Z,8.18
2019-02-14T08:07:02.576Z,8.14
2019-02-14T08:09:04.340Z,8.25
2019-02-14T08:11:05.819Z,8.24
2019-02-14T08:13:07.196Z,8.29
2019-02-14T08:15:13.442Z,8.27
2019-02-14T08:17:14.932Z,8.27
2019-02-14T08:19:16.324Z,8.27
2019-02-14T08:21:17.859Z,8.26
2019-02-14T08:23:19.359Z,8.25
2019-02-14T08:25:20.795Z,8.26
2019-02-14T08:27:22.189Z,8.29
2019-02-14T08:29:23.565Z,8.30
2019-02-14T08:31:24.999Z,8.34
2019-02-14T08:33:26.378Z,8.36
2019-02-14T08:35:27.750Z,8.39
2019-02-14T08:37:29.154Z,8.38
2019-02-14T08:39:30.494Z,8.42
2019-02-14T08:41:31.932Z,8.52
2019-02-14T08:43:33.333Z,8.53
2019-02-14T08:45:34.738Z,8.48
2019-02-14T08:47:36.084Z,8.49
2019-02-14T08:49:37.488Z,8.53
2019-02-14T08:51:38.852Z,8.53
2019-02-14T08:53:40.225Z,8.46
2019-02-14T08:55:41.635Z,8.51
2019-02-14T08:57:43.013Z,8.69
2019-02-14T08:59:44.384Z,8.67
2019-02-14T09:01:45.774Z,8.72
2019-02-14T09:03:47.160Z,8.79
2019-02-14T09:05:48.756Z,8.86
2019-02-14T09:07:54.649Z,8.93
2019-02-14T09:09:53.752Z,9.04
2019-02-14T09:11:55.174Z,9.04
2019-02-14T09:13:56.553Z,9.13
2019-02-14T09:15:57.936Z,9.24
2019-02-14T09:17:59.331Z,9.29
2019-02-14T09:20:00.719Z,9.44
2019-02-14T09:22:02.140Z,9.47
2019-02-14T09:24:03.516Z,9.51
2019-02-14T09:26:04.902Z,9.62
2019-02-14T09:28:06.379Z,9.75
2019-02-14T09:30:11.303Z,9.64
2019-02-14T09:32:12.864Z,9.82
2019-02-14T09:34:14.221Z,9.79
2019-02-14T09:36:15.666Z,9.79
2019-02-14T09:38:17.036Z,10.01
2019-02-14T09:40:18.414Z,9.99
2019-02-14T09:42:19.847Z,9.99
2019-02-14T09:44:21.255Z,10.13
2019-02-14T09:46:22.758Z,10.19
2019-02-14T09:48:24.119Z,10.22
2019-02-14T09:50:25.482Z,10.38
2019-02-14T09:52:26.900Z,10.40
2019-02-14T09:54:28.268Z,10.55
2019-02-14T09:56:29.606Z,10.42
2019-02-14T09:58:31.017Z,10.49
2019-02-14T10:00:32.368Z,10.31
2019-02-14T10:02:33.731Z,10.51
2019-02-14T10:04:35.119Z,10.72
2019-02-14T10:06:37.086Z,10.53
2019-02-14T10:08:38.499Z,10.73
2019-02-14T10:10:39.941Z,10.81
2019-02-14T10:12:41.301Z,10.78
2019-02-14T10:14:42.687Z,11.08
2019-02-14T10:16:44.108Z,11.14
2019-02-14T10:18:45.485Z,11.07
2019-02-14T10:20:46.858Z,11.00
2019-02-14T10:22:48.260Z,10.98
2019-02-14T10:24:49.636Z,10.88
2019-02-14T10:26:51.014Z,10.81
2019-02-14T10:28:52.412Z,10.83
2019-02-14T10:30:53.806Z,10.82
2019-02-14T10:32:55.177Z,10.87
2019-02-14T10:34:56.617Z,10.75
2019-02-14T10:36:57.993Z,10.96
2019-02-14T10:38:59.371Z,10.61
2019-02-14T10:41:00.787Z,10.68
2019-02-14T10:43:02.179Z,10.82
2019-02-14T10:45:11.263Z,10.82
2019-02-14T10:47:12.629Z,11.00
2019-02-14T10:49:14.027Z,10.57
2019-02-14T10:51:15.415Z,10.31
2019-02-14T10:53:16.801Z,10.44
2019-02-14T10:55:18.216Z,10.42
2019-02-14T10:57:19.579Z,10.78
2019-02-14T10:59:20.961Z,10.93
2019-02-14T11:01:22.333Z,11.08
2019-02-14T11:03:23.723Z,10.97
2019-02-14T11:05:25.128Z,11.06
2019-02-14T11:07:26.490Z,11.09
2019-02-14T11:09:27.864Z,11.07
2019-02-14T11:11:29.261Z,11.22
2019-02-14T11:13:30.731Z,11.32
2019-02-14T11:15:32.600Z,11.52
2019-02-14T11:17:33.985Z,11.69
2019-02-14T11:19:35.402Z,11.78
2019-02-14T11:21:36.794Z,11.86
2019-02-14T11:23:38.203Z,11.59
2019-02-14T11:25:39.733Z,11.88
2019-02-14T11:27:41.114Z,11.66
2019-02-14T11:29:42.500Z,11.71
2019-02-14T11:31:43.903Z,11.73
2019-02-14T11:33:45.271Z,11.77
2019-02-14T11:35:46.745Z,11.85
2019-02-14T11:37:48.903Z,11.80
2019-02-14T11:39:50.288Z,12.06
2019-02-14T11:41:51.686Z,12.02
2019-02-14T11:43:53.082Z,11.90
2019-02-14T11:45:54.478Z,11.90
2019-02-14T11:47:55.846Z,12.02
2019-02-14T11:49:57.222Z,11.89
2019-02-14T11:51:58.640Z,12.10
2019-02-14T11:54:00.008Z,12.02
2019-02-14T11:56:01.399Z,12.13
2019-02-14T11:58:02.936Z,12.11
2019-02-14T12:00:09.917Z,12.33
2019-02-14T12:02:11.285Z,12.24
2019-02-14T12:04:12.710Z,12.17
2019-02-14T12:06:17.564Z,12.28
2019-02-14T12:08:17.392Z,12.66
2019-02-14T12:10:18.779Z,12.56
2019-02-14T12:12:20.833Z,12.69
2019-02-14T12:14:23.463Z,12.90
2019-02-14T12:16:25.203Z,12.75
2019-02-14T12:18:26.572Z,12.66
2019-02-14T12:20:27.942Z,12.77
2019-02-14T12:22:29.368Z,12.80
2019-02-14T12:24:30.724Z,12.82
2019-02-14T12:26:32.463Z,13.13
2019-02-14T12:28:33.839Z,13.09
2019-02-14T12:30:35.239Z,13.23
2019-02-14T12:32:36.626Z,12.90
2019-02-14T12:34:38.037Z,12.91
2019-02-14T12:36:39.427Z,12.96
2019-02-14T12:38:40.961Z,13.08
2019-02-14T12:40:42.323Z,13.17
2019-02-14T12:42:43.740Z,13.41
2019-02-14T12:44:45.142Z,13.38
2019-02-14T12:46:46.526Z,13.40
2019-02-14T12:48:47.945Z,13.49
2019-02-14T12:50:49.303Z,13.47
2019-02-14T12:52:50.670Z,13.31
2019-02-14T12:54:52.098Z,13.33
2019-02-14T12:56:53.489Z,13.26
2019-02-14T12:58:54.853Z,13.24
2019-02-14T13:00:56.256Z,13.42
2019-02-14T13:02:57.624Z,13.13
2019-02-14T13:04:58.988Z,13.16
2019-02-14T13:07:00.418Z,13.17
2019-02-14T13:09:01.952Z,13.41
2019-02-14T13:11:03.331Z,13.33
2019-02-14T13:13:04.721Z,13.30
2019-02-14T13:15:13.566Z,13.64
2019-02-14T13:17:14.934Z,13.73
2019-02-14T13:19:16.331Z,13.64
2019-02-14T13:21:17.695Z,13.69
2019-02-14T13:23:19.094Z,13.79
2019-02-14T13:25:20.499Z,13.89
2019-02-14T13:27:21.890Z,13.79
2019-02-14T13:29:23.391Z,13.88
2019-02-14T13:31:31.513Z,13.50
2019-02-14T13:33:28.094Z,13.77
2019-02-14T13:35:29.455Z,13.70
2019-02-14T13:37:30.927Z,13.81
2019-02-14T13:39:32.799Z,13.79
2019-02-14T13:41:34.398Z,13.80
2019-02-14T13:43:35.844Z,14.02
2019-02-14T13:45:37.323Z,13.55
2019-02-14T13:47:38.725Z,13.21
2019-02-14T13:49:40.152Z,13.64
2019-02-14T13:51:41.581Z,13.67
2019-02-14T13:53:42.988Z,13.59
2019-02-14T13:55:44.356Z,13.79
2019-02-14T13:57:45.880Z,13.72
2019-02-14T13:59:47.302Z,13.67
2019-02-14T14:01:48.674Z,13.66
2019-02-14T14:03:50.066Z,13.48
2019-02-14T14:05:51.499Z,13.39
2019-02-14T14:07:52.864Z,13.70
2019-02-14T14:09:54.230Z,13.90
2019-02-14T14:11:55.657Z,13.87
2019-02-14T14:13:57.052Z,13.95
2019-02-14T14:15:58.421Z,13.66
2019-02-14T14:17:59.823Z,13.62
2019-02-14T14:20:01.200Z,13.83
2019-02-14T14:22:02.600Z,14.05
2019-02-14T14:24:04.034Z,13.98
2019-02-14T14:26:05.451Z,13.86
2019-02-14T14:28:06.830Z,13.62
2019-02-14T14:30:10.666Z,13.93
2019-02-14T14:32:12.089Z,13.98
2019-02-14T14:34:13.465Z,14.08
2019-02-14T14:36:15.128Z,13.81
2019-02-14T14:38:16.512Z,13.37
2019-02-14T14:40:20.221Z,13.68
2019-02-14T14:42:40.204Z,13.66
2019-02-14T14:44:43.536Z,13.81
2019-02-14T14:46:44.903Z,13.79
2019-02-14T14:48:46.309Z,13.77
2019-02-14T14:50:47.698Z,13.83
2019-02-14T14:52:49.129Z,13.98
2019-02-14T14:54:50.559Z,13.43
2019-02-14T14:56:51.923Z,13.18
2019-02-14T14:58:53.579Z,13.42
2019-02-14T15:00:55.015Z,13.52
2019-02-14T15:02:56.439Z,13.68
2019-02-14T15:04:57.851Z,13.43
2019-02-14T15:06:59.283Z,13.38
2019-02-14T15:09:00.712Z,13.40
2019-02-14T15:11:02.129Z,13.45
2019-02-14T15:13:03.506Z,13.31
2019-02-14T15:15:06.571Z,13.28
2019-02-14T15:17:08.042Z,13.25
2019-02-14T15:19:09.404Z,13.15
2019-02-14T15:21:10.799Z,13.04
2019-02-14T15:23:12.172Z,13.01
2019-02-14T15:25:13.546Z,12.96
2019-02-14T15:27:14.980Z,12.70
2019-02-14T15:29:16.358Z,12.74
2019-02-14T15:31:17.732Z,12.81
2019-02-14T15:33:19.128Z,12.85
2019-02-14T15:35:20.573Z,12.81
2019-02-14T15:37:21.947Z,12.81
2019-02-14T15:39:23.565Z,12.93
2019-02-14T15:41:24.939Z,12.91
2019-02-14T15:43:26.334Z,12.79
2019-02-14T15:45:27.739Z,12.73
2019-02-14T15:47:30.826Z,12.65
2019-02-14T15:49:32.301Z,12.64
2019-02-14T15:51:33.715Z,12.64
2019-02-14T15:53:35.078Z,12.61
2019-02-14T15:55:36.459Z,12.45
2019-02-14T15:57:39.866Z,12.30
2019-02-14T15:59:42.882Z,12.33
2019-02-14T16:01:44.490Z,12.29
2019-02-14T16:03:46.356Z,12.28
2019-02-14T16:05:47.753Z,12.14
2019-02-14T16:07:49.131Z,12.03
2019-02-14T16:09:50.547Z,11.92
2019-02-14T16:11:53.157Z,11.87
2019-02-14T16:13:57.098Z,11.77
2019-02-14T16:15:58.836Z,11.63
2019-02-14T16:18:01.641Z,11.56
2019-02-14T16:20:06.411Z,11.31
2019-02-14T16:22:07.828Z,11.29
2019-02-14T16:24:09.228Z,11.23
2019-02-14T16:26:10.629Z,11.14
2019-02-14T16:28:13.611Z,10.99
2019-02-14T16:30:16.537Z,10.96
2019-02-14T16:32:18.139Z,10.88
2019-02-14T16:34:19.539Z,10.65
2019-02-14T16:36:22.733Z,10.56
2019-02-14T16:38:24.271Z,10.44
2019-02-14T16:40:27.981Z,10.35
2019-02-14T16:42:28.999Z,10.22
2019-02-14T16:44:30.413Z,10.12
2019-02-14T16:46:31.892Z,10.09
2019-02-14T16:48:33.371Z,10.00
2019-02-14T16:50:34.769Z,9.90
2019-02-14T16:52:36.172Z,9.86
2019-02-14T16:54:37.609Z,9.77
2019-02-14T16:56:39.046Z,9.66
2019-02-14T16:58:40.427Z,9.63
2019-02-14T17:00:42.053Z,9.48
2019-02-14T17:02:43.475Z,9.32
2019-02-14T17:04:44.797Z,9.22
2019-02-14T17:06:46.227Z,9.12
2019-02-14T17:08:47.664Z,9.04
2019-02-14T17:10:49.051Z,8.93
2019-02-14T17:12:50.481Z,8.86
2019-02-14T17:14:51.941Z,8.89
2019-02-14T17:16:53.401Z,8.82
2019-02-14T17:18:54.899Z,8.81
2019-02-14T17:20:56.271Z,8.78
2019-02-14T17:22:57.784Z,8.80
2019-02-14T17:24:59.147Z,8.73
2019-02-14T17:27:00.506Z,8.74
2019-02-14T17:29:01.945Z,8.69
2019-02-14T17:31:03.298Z,8.81
2019-02-14T17:33:04.747Z,8.60
2019-02-14T17:35:06.736Z,8.43
2019-02-14T17:37:08.186Z,8.56
2019-02-14T17:39:09.563Z,8.40
2019-02-14T17:41:11.010Z,8.33
2019-02-14T17:43:12.445Z,8.25
2019-02-14T17:45:13.810Z,8.19
2019-02-14T17:47:15.178Z,8.12
2019-02-14T17:49:16.591Z,8.04
2019-02-14T17:51:17.943Z,7.99
2019-02-14T17:53:19.385Z,7.90
2019-02-14T17:55:20.778Z,7.84
2019-02-14T17:57:22.194Z,7.75
2019-02-14T17:59:23.619Z,7.77
2019-02-14T18:01:25.072Z,7.75
2019-02-14T18:03:26.401Z,7.68
2019-02-14T18:05:27.765Z,7.70
2019-02-14T18:07:29.216Z,7.59
2019-02-14T18:09:30.584Z,7.43
2019-02-14T18:11:32.075Z,7.46
2019-02-14T18:13:33.473Z,7.44
2019-02-14T18:15:34.840Z,7.33
2019-02-14T18:17:36.254Z,7.27
2019-02-14T18:19:37.632Z,7.23
2019-02-14T18:21:38.967Z,7.16
2019-02-14T18:23:40.388Z,7.14
2019-02-14T18:25:41.740Z,7.05
2019-02-14T18:27:43.111Z,7.05
2019-02-14T18:29:44.559Z,7.09
2019-02-14T18:31:45.929Z,7.11
2019-02-14T18:33:47.309Z,7.02
2019-02-14T18:35:48.726Z,6.96
2019-02-14T18:37:50.090Z,6.95
2019-02-14T18:39:52.298Z,6.96
2019-02-14T18:41:53.728Z,6.86
2019-02-14T18:43:55.103Z,6.72
2019-02-14T18:45:56.458Z,6.42
2019-02-14T18:47:57.914Z,6.37
2019-02-14T18:49:59.301Z,6.30
2019-02-14T18:52:00.663Z,6.24
2019-02-14T18:54:02.068Z,6.19
2019-02-14T18:56:03.438Z,6.16
2019-02-14T18:58:04.813Z,6.10
2019-02-14T19:00:15.983Z,6.11
2019-02-14T19:02:17.315Z,6.06
2019-02-14T19:04:18.680Z,6.02
2019-02-14T19:06:20.121Z,6.02
2019-02-14T19:08:21.596Z,6.12
2019-02-14T19:10:22.965Z,6.07
2019-02-14T19:12:24.582Z,6.12
2019-02-14T19:14:25.913Z,5.88
2019-02-14T19:16:27.381Z,5.87
2019-02-14T19:18:28.856Z,5.76
2019-02-14T19:20:30.317Z,5.65
2019-02-14T19:22:31.756Z,5.65
2019-02-14T19:24:33.103Z,5.69
2019-02-14T19:26:36.447Z,5.50
2019-02-14T19:28:38.414Z,5.51
2019-02-14T19:30:39.774Z,5.45
2019-02-14T19:32:41.120Z,5.46
2019-02-14T19:34:42.588Z,5.36
2019-02-14T19:36:43.985Z,5.28
2019-02-14T19:38:45.354Z,5.24
2019-02-14T19:40:46.833Z,5.21
2019-02-14T19:42:48.185Z,5.21
2019-02-14T19:44:49.558Z,5.26
2019-02-14T19:46:50.985Z,5.22
2019-02-14T19:48:53.370Z,5.19
2019-02-14T19:50:54.897Z,5.17
2019-02-14T19:52:56.262Z,5.12
2019-02-14T19:54:57.627Z,5.15
2019-02-14T19:56:59.177Z,5.06
2019-02-14T19:59:00.530Z,5.08
2019-02-14T20:01:01.895Z,5.03
2019-02-14T20:03:03.298Z,5.00
2019-02-14T20:05:07.391Z,4.97
2019-02-14T20:07:08.866Z,4.91
2019-02-14T20:09:10.320Z,4.96
2019-02-14T20:11:11.696Z,5.00
2019-02-14T20:13:16.491Z,5.15
2019-02-14T20:15:19.259Z,5.02
2019-02-14T20:17:20.602Z,4.93
2019-02-14T20:19:22.178Z,4.87
2019-02-14T20:21:23.568Z,4.88
2019-02-14T20:23:24.919Z,5.10
2019-02-14T20:25:28.497Z,5.09
2019-02-14T20:27:29.903Z,4.95
2019-02-14T20:29:31.301Z,4.88
2019-02-14T20:31:32.705Z,4.96
2019-02-14T20:33:34.051Z,4.99
2019-02-14T20:35:35.401Z,4.88
2019-02-14T20:37:36.814Z,4.80
2019-02-14T20:39:38.178Z,5.02
2019-02-14T20:41:45.371Z,5.13
2019-02-14T20:43:42.896Z,5.14
2019-02-14T20:45:44.405Z,5.18
2019-02-14T20:47:45.752Z,5.01
2019-02-14T20:49:47.173Z,5.00
2019-02-14T20:51:48.526Z,5.27
2019-02-14T20:53:49.891Z,4.96
2019-02-14T20:55:51.344Z,4.83
2019-02-14T20:57:52.695Z,4.83
2019-02-14T20:59:54.064Z,4.78
2019-02-14T21:01:55.464Z,4.66
2019-02-14T21:03:56.816Z,4.61
2019-02-14T21:05:58.161Z,4.56
2019-02-14T21:07:59.572Z,4.59
2019-02-14T21:10:00.937Z,4.81
2019-02-14T21:12:02.289Z,4.68
2019-02-14T21:14:03.707Z,4.56
2019-02-14T21:16:05.096Z,4.59
2019-02-14T21:18:06.504Z,4.53
2019-02-14T21:20:11.590Z,4.52
2019-02-14T21:22:18.194Z,4.58
2019-02-14T21:24:16.738Z,4.58
2019-02-14T21:26:18.282Z,4.47
2019-02-14T21:28:19.705Z,4.36
2019-02-14T21:30:21.134Z,4.40
2019-02-14T21:32:22.483Z,4.36
2019-02-14T21:34:23.859Z,4.29
2019-02-14T21:36:25.349Z,4.30
2019-02-14T21:38:26.703Z,4.27
2019-02-14T21:40:28.083Z,4.36
2019-02-14T21:42:30.300Z,4.19
2019-02-14T21:44:32.013Z,4.03
2019-02-14T21:46:33.385Z,3.87
2019-02-14T21:48:34.784Z,3.81
2019-02-14T21:50:36.181Z,3.69
2019-02-14T21:52:37.786Z,3.59
2019-02-14T21:54:39.379Z,3.49
2019-02-14T21:56:40.722Z,3.40
2019-02-14T21:58:42.190Z,3.37
2019-02-14T22:00:43.613Z,3.34
2019-02-14T22:02:45.141Z,3.30
2019-02-14T22:04:46.558Z,3.37
2019-02-14T22:06:47.936Z,3.28
2019-02-14T22:08:49.342Z,3.23
2019-02-14T22:10:50.719Z,3.23
2019-02-14T22:12:52.097Z,3.16
2019-02-14T22:14:53.567Z,3.13
2019-02-14T22:16:54.944Z,3.09
2019-02-14T22:18:56.330Z,3.06
2019-02-14T22:21:03.740Z,3.07
2019-02-14T22:23:05.340Z,3.01
2019-02-14T22:25:09.200Z,3.02
2019-02-14T22:27:11.120Z,3.03
2019-02-14T22:29:12.463Z,2.98
2019-02-14T22:31:13.823Z,2.98
2019-02-14T22:33:15.246Z,2.98
2019-02-14T22:35:16.594Z,2.92
2019-02-14T22:37:18.083Z,2.88
2019-02-14T22:39:19.535Z,2.82
2019-02-14T22:41:20.961Z,2.85
2019-02-14T22:43:22.404Z,2.84
2019-02-14T22:45:23.926Z,2.77
2019-02-14T22:47:25.274Z,2.76
2019-02-14T22:49:26.641Z,2.72
2019-02-14T22:51:28.032Z,2.65
2019-02-14T22:53:29.391Z,2.66
2019-02-14T22:55:30.789Z,2.60
2019-02-14T22:57:32.117Z,2.51
2019-02-14T22:59:33.510Z,2.49
2019-02-14T23:01:34.925Z,2.45
2019-02-14T23:03:36.303Z,2.41
2019-02-14T23:05:37.690Z,2.35
2019-02-14T23:07:39.106Z,2.28
2019-02-14T23:09:40.602Z,2.33
2019-02-14T23:11:42.049Z,2.37
2019-02-14T23:13:43.396Z,2.33
2019-02-14T23:15:44.806Z,2.33
2019-02-14T23:17:46.152Z,2.37
2019-02-14T23:19:49.390Z,2.41
2019-02-14T23:21:50.796Z,2.27
2019-02-14T23:23:52.151Z,2.26
2019-02-14T23:25:53.485Z,2.28
2019-02-14T23:27:55.786Z,2.35
2019-02-14T23:29:57.135Z,2.26
2019-02-14T23:31:58.491Z,2.30
2019-02-14T23:33:59.879Z,2.27
2019-02-14T23:36:01.219Z,2.26
2019-02-14T23:38:02.654Z,2.25
2019-02-14T23:40:05.613Z,2.22
2019-02-14T23:42:07.037Z,2.16
2019-02-14T23:44:08.410Z,2.07
2019-02-14T23:46:09.778Z,2.02
2019-02-14T23:48:11.153Z,1.96
2019-02-14T23:50:12.562Z,1.91
2019-02-14T23:52:13.928Z,1.96
2019-02-14T23:54:15.283Z,1.94
2019-02-14T23:56:16.858Z,1.89
2019-02-14T23:58:18.216Z,1.91
